sensor_id;sensor_type;location;lat;lon;timestamp;P1;durP1;ratioP1;P2;durP2;ratioP2
8279;SDS011;8335;42.646;23.380;2022-11-15T00:00:35;32.00;;;18.40;;
8279;SDS011;8335;42.646;23.380;2022-11-15T00:03:02;32.10;;;18.83;;
8279;SDS011;8335;42.646;23.380;2022-11-15T00:05:30;30.13;;;18.33;;
8279;SDS011;8335;42.646;23.380;2022-11-15T00:08:00;32.57;;;18.40;;
8279;SDS011;8335;42.646;23.380;2022-11-15T00:10:27;31.17;;;18.60;;
8279;SDS011;8335;42.646;23.380;2022-11-15T00:12:54;29.20;;;16.87;;
8279;SDS011;8335;42.646;23.380;2022-11-15T00:15:21;28.97;;;16.87;;
8279;SDS011;8335;42.646;23.380;2022-11-15T00:17:48;27.17;;;16.37;;
8279;SDS011;8335;42.646;23.380;2022-11-15T00:20:15;27.70;;;16.77;;
8279;SDS011;8335;42.646;23.380;2022-11-15T00:22:43;28.93;;;16.63;;
8279;SDS011;8335;42.646;23.380;2022-11-15T00:25:10;30.27;;;16.53;;
8279;SDS011;8335;42.646;23.380;2022-11-15T00:27:37;27.57;;;16.00;;
8279;SDS011;8335;42.646;23.380;2022-11-15T00:30:04;30.40;;;17.47;;
8279;SDS011;8335;42.646;23.380;2022-11-15T00:32:31;30.73;;;16.77;;
8279;SDS011;8335;42.646;23.380;2022-11-15T00:34:58;32.43;;;18.93;;
8279;SDS011;8335;42.646;23.380;2022-11-15T00:37:25;35.70;;;19.60;;
8279;SDS011;8335;42.646;23.380;2022-11-15T00:39:53;35.33;;;20.77;;
8279;SDS011;8335;42.646;23.380;2022-11-15T00:42:20;40.80;;;22.47;;
8279;SDS011;8335;42.646;23.380;2022-11-15T00:44:46;43.80;;;24.60;;
8279;SDS011;8335;42.646;23.380;2022-11-15T00:47:13;50.00;;;30.73;;
8279;SDS011;8335;42.646;23.380;2022-11-15T00:49:40;61.70;;;33.47;;
8279;SDS011;8335;42.646;23.380;2022-11-15T00:52:07;72.07;;;38.20;;
8279;SDS011;8335;42.646;23.380;2022-11-15T00:54:33;79.30;;;38.93;;
8279;SDS011;8335;42.646;23.380;2022-11-15T00:57:01;77.00;;;39.77;;
8279;SDS011;8335;42.646;23.380;2022-11-15T00:59:29;67.27;;;37.00;;
8279;SDS011;8335;42.646;23.380;2022-11-15T01:01:55;69.33;;;36.87;;
8279;SDS011;8335;42.646;23.380;2022-11-15T01:04:22;75.23;;;38.43;;
8279;SDS011;8335;42.646;23.380;2022-11-15T01:06:49;71.10;;;37.37;;
8279;SDS011;8335;42.646;23.380;2022-11-15T01:09:16;71.90;;;37.13;;
8279;SDS011;8335;42.646;23.380;2022-11-15T01:11:43;76.40;;;39.00;;
8279;SDS011;8335;42.646;23.380;2022-11-15T01:14:11;71.00;;;37.20;;
8279;SDS011;8335;42.646;23.380;2022-11-15T01:16:37;66.57;;;36.23;;
8279;SDS011;8335;42.646;23.380;2022-11-15T01:19:04;66.23;;;35.40;;
8279;SDS011;8335;42.646;23.380;2022-11-15T01:21:31;83.63;;;37.10;;
8279;SDS011;8335;42.646;23.380;2022-11-15T01:23:58;73.73;;;40.27;;
8279;SDS011;8335;42.646;23.380;2022-11-15T01:26:24;84.30;;;41.63;;
8279;SDS011;8335;42.646;23.380;2022-11-15T01:28:51;79.70;;;41.83;;
8279;SDS011;8335;42.646;23.380;2022-11-15T01:31:20;87.57;;;42.33;;
8279;SDS011;8335;42.646;23.380;2022-11-15T01:33:47;90.63;;;45.77;;
8279;SDS011;8335;42.646;23.380;2022-11-15T01:36:15;84.07;;;44.77;;
8279;SDS011;8335;42.646;23.380;2022-11-15T01:38:58;81.43;;;43.57;;
8279;SDS011;8335;42.646;23.380;2022-11-15T01:41:26;78.37;;;39.73;;
8279;SDS011;8335;42.646;23.380;2022-11-15T01:43:54;90.13;;;42.77;;
8279;SDS011;8335;42.646;23.380;2022-11-15T01:46:24;87.53;;;43.30;;
8279;SDS011;8335;42.646;23.380;2022-11-15T01:48:56;90.40;;;44.00;;
8279;SDS011;8335;42.646;23.380;2022-11-15T01:51:25;88.83;;;45.23;;
8279;SDS011;8335;42.646;23.380;2022-11-15T01:53:57;90.53;;;45.73;;
8279;SDS011;8335;42.646;23.380;2022-11-15T01:56:32;91.50;;;44.70;;
8279;SDS011;8335;42.646;23.380;2022-11-15T01:59:05;96.83;;;44.83;;
8279;SDS011;8335;42.646;23.380;2022-11-15T02:01:35;76.53;;;40.50;;
8279;SDS011;8335;42.646;23.380;2022-11-15T02:04:03;82.77;;;41.93;;
8279;SDS011;8335;42.646;23.380;2022-11-15T02:06:37;81.13;;;40.23;;
8279;SDS011;8335;42.646;23.380;2022-11-15T02:09:05;76.70;;;40.30;;
8279;SDS011;8335;42.646;23.380;2022-11-15T02:11:32;83.53;;;39.00;;
8279;SDS011;8335;42.646;23.380;2022-11-15T02:13:59;66.43;;;35.70;;
8279;SDS011;8335;42.646;23.380;2022-11-15T02:16:31;58.67;;;31.37;;
8279;SDS011;8335;42.646;23.380;2022-11-15T02:19:13;53.60;;;30.27;;
8279;SDS011;8335;42.646;23.380;2022-11-15T02:21:55;54.53;;;29.93;;
8279;SDS011;8335;42.646;23.380;2022-11-15T02:24:41;44.63;;;24.20;;
8279;SDS011;8335;42.646;23.380;2022-11-15T02:27:23;44.23;;;25.50;;
8279;SDS011;8335;42.646;23.380;2022-11-15T02:30:22;41.27;;;22.07;;
8279;SDS011;8335;42.646;23.380;2022-11-15T02:32:52;61.70;;;32.13;;
8279;SDS011;8335;42.646;23.380;2022-11-15T02:35:27;60.60;;;32.43;;
8279;SDS011;8335;42.646;23.380;2022-11-15T02:38:04;72.63;;;31.33;;
8279;SDS011;8335;42.646;23.380;2022-11-15T02:40:38;57.23;;;29.97;;
8279;SDS011;8335;42.646;23.380;2022-11-15T02:43:11;49.60;;;26.87;;
8279;SDS011;8335;42.646;23.380;2022-11-15T02:46:01;50.53;;;27.43;;
8279;SDS011;8335;42.646;23.380;2022-11-15T02:48:32;51.43;;;27.13;;
8279;SDS011;8335;42.646;23.380;2022-11-15T02:51:00;57.10;;;29.30;;
8279;SDS011;8335;42.646;23.380;2022-11-15T02:53:27;48.33;;;26.70;;
8279;SDS011;8335;42.646;23.380;2022-11-15T02:55:55;47.73;;;26.60;;
8279;SDS011;8335;42.646;23.380;2022-11-15T02:58:36;56.30;;;29.47;;
8279;SDS011;8335;42.646;23.380;2022-11-15T03:01:20;53.27;;;28.37;;
8279;SDS011;8335;42.646;23.380;2022-11-15T03:04:02;34.20;;;18.07;;
8279;SDS011;8335;42.646;23.380;2022-11-15T03:06:38;26.37;;;15.57;;
8279;SDS011;8335;42.646;23.380;2022-11-15T03:09:09;30.77;;;17.07;;
8279;SDS011;8335;42.646;23.380;2022-11-15T03:11:43;29.27;;;16.93;;
8279;SDS011;8335;42.646;23.380;2022-11-15T03:14:18;27.00;;;15.13;;
8279;SDS011;8335;42.646;23.380;2022-11-15T03:16:49;24.50;;;14.50;;
8279;SDS011;8335;42.646;23.380;2022-11-15T03:19:26;30.03;;;16.83;;
8279;SDS011;8335;42.646;23.380;2022-11-15T03:21:59;26.07;;;15.67;;
8279;SDS011;8335;42.646;23.380;2022-11-15T03:24:29;27.80;;;16.23;;
8279;SDS011;8335;42.646;23.380;2022-11-15T03:27:00;32.97;;;16.33;;
8279;SDS011;8335;42.646;23.380;2022-11-15T03:29:31;27.73;;;15.60;;
8279;SDS011;8335;42.646;23.380;2022-11-15T03:32:02;26.83;;;16.57;;
8279;SDS011;8335;42.646;23.380;2022-11-15T03:34:34;27.93;;;17.67;;
8279;SDS011;8335;42.646;23.380;2022-11-15T03:37:06;29.03;;;16.03;;
8279;SDS011;8335;42.646;23.380;2022-11-15T03:39:34;28.57;;;16.90;;
8279;SDS011;8335;42.646;23.380;2022-11-15T03:42:04;38.83;;;22.60;;
8279;SDS011;8335;42.646;23.380;2022-11-15T03:44:40;41.43;;;24.07;;
8279;SDS011;8335;42.646;23.380;2022-11-15T03:47:14;29.97;;;16.73;;
8279;SDS011;8335;42.646;23.380;2022-11-15T03:49:46;26.67;;;16.17;;
8279;SDS011;8335;42.646;23.380;2022-11-15T03:52:17;24.10;;;14.47;;
8279;SDS011;8335;42.646;23.380;2022-11-15T03:54:49;36.80;;;22.27;;
8279;SDS011;8335;42.646;23.380;2022-11-15T03:57:16;47.33;;;30.13;;
8279;SDS011;8335;42.646;23.380;2022-11-15T03:59:43;51.27;;;29.70;;
8279;SDS011;8335;42.646;23.380;2022-11-15T04:02:10;45.37;;;28.43;;
8279;SDS011;8335;42.646;23.380;2022-11-15T04:04:38;52.53;;;31.00;;
8279;SDS011;8335;42.646;23.380;2022-11-15T04:07:05;57.27;;;32.63;;
8279;SDS011;8335;42.646;23.380;2022-11-15T04:09:32;63.87;;;36.07;;
8279;SDS011;8335;42.646;23.380;2022-11-15T04:12:19;55.93;;;32.93;;
8279;SDS011;8335;42.646;23.380;2022-11-15T04:14:56;63.13;;;34.63;;
8279;SDS011;8335;42.646;23.380;2022-11-15T04:17:37;106.33;;;36.27;;
8279;SDS011;8335;42.646;23.380;2022-11-15T04:20:08;68.23;;;36.47;;
8279;SDS011;8335;42.646;23.380;2022-11-15T04:22:54;73.23;;;35.57;;
8279;SDS011;8335;42.646;23.380;2022-11-15T04:25:39;91.47;;;35.70;;
8279;SDS011;8335;42.646;23.380;2022-11-15T04:28:07;107.60;;;38.60;;
8279;SDS011;8335;42.646;23.380;2022-11-15T04:30:34;85.00;;;37.87;;
8279;SDS011;8335;42.646;23.380;2022-11-15T04:33:00;126.70;;;38.03;;
8279;SDS011;8335;42.646;23.380;2022-11-15T04:35:29;97.40;;;36.57;;
8279;SDS011;8335;42.646;23.380;2022-11-15T04:37:56;225.37;;;40.23;;
8279;SDS011;8335;42.646;23.380;2022-11-15T04:40:23;120.87;;;37.33;;
8279;SDS011;8335;42.646;23.380;2022-11-15T04:42:49;141.93;;;39.27;;
8279;SDS011;8335;42.646;23.380;2022-11-15T04:45:16;121.67;;;38.23;;
8279;SDS011;8335;42.646;23.380;2022-11-15T04:47:43;120.77;;;38.70;;
8279;SDS011;8335;42.646;23.380;2022-11-15T04:50:11;133.40;;;40.00;;
8279;SDS011;8335;42.646;23.380;2022-11-15T04:52:40;105.37;;;38.43;;
8279;SDS011;8335;42.646;23.380;2022-11-15T04:55:08;83.60;;;36.70;;
8279;SDS011;8335;42.646;23.380;2022-11-15T04:57:35;77.00;;;36.57;;
8279;SDS011;8335;42.646;23.380;2022-11-15T05:00:02;72.77;;;35.77;;
8279;SDS011;8335;42.646;23.380;2022-11-15T05:02:30;83.10;;;38.43;;
8279;SDS011;8335;42.646;23.380;2022-11-15T05:05:11;78.73;;;37.53;;
8279;SDS011;8335;42.646;23.380;2022-11-15T05:07:37;76.03;;;36.90;;
8279;SDS011;8335;42.646;23.380;2022-11-15T05:10:06;84.77;;;37.40;;
8279;SDS011;8335;42.646;23.380;2022-11-15T05:12:33;96.93;;;37.30;;
8279;SDS011;8335;42.646;23.380;2022-11-15T05:15:00;89.97;;;38.23;;
8279;SDS011;8335;42.646;23.380;2022-11-15T05:17:26;85.43;;;36.60;;
8279;SDS011;8335;42.646;23.380;2022-11-15T05:19:53;97.90;;;36.10;;
8279;SDS011;8335;42.646;23.380;2022-11-15T05:22:20;75.67;;;36.27;;
8279;SDS011;8335;42.646;23.380;2022-11-15T05:24:47;77.83;;;37.33;;
8279;SDS011;8335;42.646;23.380;2022-11-15T05:27:15;79.57;;;34.63;;
8279;SDS011;8335;42.646;23.380;2022-11-15T05:29:42;79.43;;;36.40;;
8279;SDS011;8335;42.646;23.380;2022-11-15T05:32:08;77.83;;;36.13;;
8279;SDS011;8335;42.646;23.380;2022-11-15T05:34:36;79.03;;;34.83;;
8279;SDS011;8335;42.646;23.380;2022-11-15T05:37:02;106.43;;;36.37;;
8279;SDS011;8335;42.646;23.380;2022-11-15T05:39:29;78.10;;;33.57;;
8279;SDS011;8335;42.646;23.380;2022-11-15T05:41:57;81.73;;;35.70;;
8279;SDS011;8335;42.646;23.380;2022-11-15T05:44:29;71.90;;;34.23;;
8279;SDS011;8335;42.646;23.380;2022-11-15T05:46:57;72.17;;;32.80;;
8279;SDS011;8335;42.646;23.380;2022-11-15T05:49:25;83.57;;;31.60;;
8279;SDS011;8335;42.646;23.380;2022-11-15T05:52:00;78.07;;;31.40;;
8279;SDS011;8335;42.646;23.380;2022-11-15T05:54:30;65.77;;;27.27;;
8279;SDS011;8335;42.646;23.380;2022-11-15T05:56:58;38.70;;;18.80;;
8279;SDS011;8335;42.646;23.380;2022-11-15T05:59:28;38.27;;;20.27;;
8279;SDS011;8335;42.646;23.380;2022-11-15T06:01:56;45.97;;;21.50;;
8279;SDS011;8335;42.646;23.380;2022-11-15T06:04:23;41.50;;;18.50;;
8279;SDS011;8335;42.646;23.380;2022-11-15T06:06:49;41.50;;;20.40;;
8279;SDS011;8335;42.646;23.380;2022-11-15T06:09:16;37.60;;;20.60;;
8279;SDS011;8335;42.646;23.380;2022-11-15T06:11:43;37.87;;;20.17;;
8279;SDS011;8335;42.646;23.380;2022-11-15T06:14:10;45.50;;;21.23;;
8279;SDS011;8335;42.646;23.380;2022-11-15T06:16:38;41.97;;;20.87;;
8279;SDS011;8335;42.646;23.380;2022-11-15T06:19:05;38.87;;;19.53;;
8279;SDS011;8335;42.646;23.380;2022-11-15T06:21:32;37.53;;;19.83;;
8279;SDS011;8335;42.646;23.380;2022-11-15T06:23:59;37.43;;;19.93;;
8279;SDS011;8335;42.646;23.380;2022-11-15T06:26:26;43.33;;;21.50;;
8279;SDS011;8335;42.646;23.380;2022-11-15T06:28:53;44.10;;;22.67;;
8279;SDS011;8335;42.646;23.380;2022-11-15T06:31:19;46.77;;;23.87;;
8279;SDS011;8335;42.646;23.380;2022-11-15T06:33:48;47.47;;;23.40;;
8279;SDS011;8335;42.646;23.380;2022-11-15T06:36:15;52.97;;;25.23;;
8279;SDS011;8335;42.646;23.380;2022-11-15T06:38:43;55.47;;;25.43;;
8279;SDS011;8335;42.646;23.380;2022-11-15T06:41:10;65.37;;;27.87;;
8279;SDS011;8335;42.646;23.380;2022-11-15T06:43:38;60.13;;;27.60;;
8279;SDS011;8335;42.646;23.380;2022-11-15T06:46:06;57.77;;;26.30;;
8279;SDS011;8335;42.646;23.380;2022-11-15T06:48:34;59.13;;;26.70;;
8279;SDS011;8335;42.646;23.380;2022-11-15T06:51:03;71.40;;;30.00;;
8279;SDS011;8335;42.646;23.380;2022-11-15T06:53:30;66.57;;;29.20;;
8279;SDS011;8335;42.646;23.380;2022-11-15T06:55:58;63.43;;;30.13;;
8279;SDS011;8335;42.646;23.380;2022-11-15T06:58:26;71.43;;;30.43;;
8279;SDS011;8335;42.646;23.380;2022-11-15T07:00:53;74.43;;;29.63;;
8279;SDS011;8335;42.646;23.380;2022-11-15T07:03:21;74.20;;;30.93;;
8279;SDS011;8335;42.646;23.380;2022-11-15T07:05:51;65.23;;;30.27;;
8279;SDS011;8335;42.646;23.380;2022-11-15T07:08:21;64.83;;;29.90;;
8279;SDS011;8335;42.646;23.380;2022-11-15T07:10:48;63.13;;;28.23;;
8279;SDS011;8335;42.646;23.380;2022-11-15T07:13:15;53.53;;;25.63;;
8279;SDS011;8335;42.646;23.380;2022-11-15T07:15:42;56.50;;;28.23;;
8279;SDS011;8335;42.646;23.380;2022-11-15T07:18:09;62.03;;;28.80;;
8279;SDS011;8335;42.646;23.380;2022-11-15T07:20:35;59.90;;;27.47;;
8279;SDS011;8335;42.646;23.380;2022-11-15T07:23:03;55.43;;;27.17;;
8279;SDS011;8335;42.646;23.380;2022-11-15T07:25:31;57.80;;;27.23;;
8279;SDS011;8335;42.646;23.380;2022-11-15T07:27:59;46.17;;;23.17;;
8279;SDS011;8335;42.646;23.380;2022-11-15T07:30:26;53.70;;;24.20;;
8279;SDS011;8335;42.646;23.380;2022-11-15T07:32:53;45.63;;;22.30;;
8279;SDS011;8335;42.646;23.380;2022-11-15T07:35:20;43.90;;;21.83;;
8279;SDS011;8335;42.646;23.380;2022-11-15T07:37:53;37.90;;;20.70;;
8279;SDS011;8335;42.646;23.380;2022-11-15T07:40:20;42.40;;;21.67;;
8279;SDS011;8335;42.646;23.380;2022-11-15T07:42:49;40.93;;;21.23;;
8279;SDS011;8335;42.646;23.380;2022-11-15T07:45:19;37.50;;;20.63;;
8279;SDS011;8335;42.646;23.380;2022-11-15T07:47:45;42.07;;;21.90;;
8279;SDS011;8335;42.646;23.380;2022-11-15T07:50:13;40.30;;;21.67;;
8279;SDS011;8335;42.646;23.380;2022-11-15T07:52:40;42.23;;;23.30;;
8279;SDS011;8335;42.646;23.380;2022-11-15T07:55:07;44.27;;;23.47;;
8279;SDS011;8335;42.646;23.380;2022-11-15T07:57:34;44.87;;;24.07;;
8279;SDS011;8335;42.646;23.380;2022-11-15T08:00:02;53.43;;;27.23;;
8279;SDS011;8335;42.646;23.380;2022-11-15T08:02:30;56.50;;;28.30;;
8279;SDS011;8335;42.646;23.380;2022-11-15T08:04:57;56.97;;;28.37;;
8279;SDS011;8335;42.646;23.380;2022-11-15T08:07:24;70.17;;;33.50;;
8279;SDS011;8335;42.646;23.380;2022-11-15T08:09:51;77.50;;;38.57;;
8279;SDS011;8335;42.646;23.380;2022-11-15T08:12:18;88.00;;;39.70;;
8279;SDS011;8335;42.646;23.380;2022-11-15T08:14:45;96.63;;;42.87;;
8279;SDS011;8335;42.646;23.380;2022-11-15T08:17:13;95.13;;;43.73;;
8279;SDS011;8335;42.646;23.380;2022-11-15T08:19:39;93.60;;;42.20;;
8279;SDS011;8335;42.646;23.380;2022-11-15T08:22:06;91.40;;;42.07;;
8279;SDS011;8335;42.646;23.380;2022-11-15T08:24:33;84.63;;;40.50;;
8279;SDS011;8335;42.646;23.380;2022-11-15T08:27:00;86.33;;;40.90;;
8279;SDS011;8335;42.646;23.380;2022-11-15T08:29:26;82.07;;;39.40;;
8279;SDS011;8335;42.646;23.380;2022-11-15T08:31:54;85.67;;;39.37;;
8279;SDS011;8335;42.646;23.380;2022-11-15T08:34:22;82.63;;;38.13;;
8279;SDS011;8335;42.646;23.380;2022-11-15T08:36:49;86.97;;;39.40;;
8279;SDS011;8335;42.646;23.380;2022-11-15T08:39:16;82.53;;;38.83;;
8279;SDS011;8335;42.646;23.380;2022-11-15T08:41:43;77.60;;;38.03;;
8279;SDS011;8335;42.646;23.380;2022-11-15T08:44:09;79.67;;;38.73;;
8279;SDS011;8335;42.646;23.380;2022-11-15T08:46:36;75.03;;;38.57;;
8279;SDS011;8335;42.646;23.380;2022-11-15T08:49:03;74.47;;;38.20;;
8279;SDS011;8335;42.646;23.380;2022-11-15T08:51:31;75.33;;;38.30;;
8279;SDS011;8335;42.646;23.380;2022-11-15T08:53:58;74.27;;;35.37;;
8279;SDS011;8335;42.646;23.380;2022-11-15T08:56:24;72.43;;;36.40;;
8279;SDS011;8335;42.646;23.380;2022-11-15T08:58:51;72.40;;;37.60;;
8279;SDS011;8335;42.646;23.380;2022-11-15T09:01:19;74.73;;;37.37;;
8279;SDS011;8335;42.646;23.380;2022-11-15T09:03:46;76.17;;;36.23;;
8279;SDS011;8335;42.646;23.380;2022-11-15T09:06:13;80.07;;;38.53;;
8279;SDS011;8335;42.646;23.380;2022-11-15T09:08:42;81.50;;;39.57;;
8279;SDS011;8335;42.646;23.380;2022-11-15T09:11:09;73.23;;;37.63;;
8279;SDS011;8335;42.646;23.380;2022-11-15T09:13:36;78.10;;;38.10;;
8279;SDS011;8335;42.646;23.380;2022-11-15T09:16:03;78.60;;;39.03;;
8279;SDS011;8335;42.646;23.380;2022-11-15T09:18:31;79.77;;;38.53;;
8279;SDS011;8335;42.646;23.380;2022-11-15T09:20:58;78.60;;;38.60;;
8279;SDS011;8335;42.646;23.380;2022-11-15T09:23:27;82.07;;;39.10;;
8279;SDS011;8335;42.646;23.380;2022-11-15T09:25:59;70.77;;;37.77;;
8279;SDS011;8335;42.646;23.380;2022-11-15T09:28:27;80.33;;;39.67;;
8279;SDS011;8335;42.646;23.380;2022-11-15T09:30:55;78.03;;;40.07;;
8279;SDS011;8335;42.646;23.380;2022-11-15T09:33:23;76.97;;;37.77;;
8279;SDS011;8335;42.646;23.380;2022-11-15T09:35:50;74.73;;;38.03;;
8279;SDS011;8335;42.646;23.380;2022-11-15T09:38:17;73.17;;;37.27;;
8279;SDS011;8335;42.646;23.380;2022-11-15T09:40:44;80.50;;;39.97;;
8279;SDS011;8335;42.646;23.380;2022-11-15T09:43:26;74.67;;;38.07;;
8279;SDS011;8335;42.646;23.380;2022-11-15T09:46:01;74.77;;;38.70;;
8279;SDS011;8335;42.646;23.380;2022-11-15T09:48:46;75.33;;;39.77;;
8279;SDS011;8335;42.646;23.380;2022-11-15T09:51:20;76.97;;;38.33;;
8279;SDS011;8335;42.646;23.380;2022-11-15T09:53:56;77.37;;;39.00;;
8279;SDS011;8335;42.646;23.380;2022-11-15T09:56:31;73.87;;;38.90;;
8279;SDS011;8335;42.646;23.380;2022-11-15T09:59:07;83.13;;;41.00;;
8279;SDS011;8335;42.646;23.380;2022-11-15T10:01:45;69.30;;;37.03;;
8279;SDS011;8335;42.646;23.380;2022-11-15T10:04:19;72.53;;;37.20;;
8279;SDS011;8335;42.646;23.380;2022-11-15T10:06:49;73.63;;;37.93;;
8279;SDS011;8335;42.646;23.380;2022-11-15T10:09:21;74.17;;;37.83;;
8279;SDS011;8335;42.646;23.380;2022-11-15T10:11:52;71.30;;;38.03;;
8279;SDS011;8335;42.646;23.380;2022-11-15T10:14:21;72.67;;;37.40;;
8279;SDS011;8335;42.646;23.380;2022-11-15T10:19:50;68.47;;;39.43;;
8279;SDS011;8335;42.646;23.380;2022-11-15T10:22:25;67.63;;;38.20;;
8279;SDS011;8335;42.646;23.380;2022-11-15T10:24:59;74.23;;;39.97;;
8279;SDS011;8335;42.646;23.380;2022-11-15T10:27:37;74.40;;;41.10;;
8279;SDS011;8335;42.646;23.380;2022-11-15T10:30:09;72.93;;;38.20;;
8279;SDS011;8335;42.646;23.380;2022-11-15T10:32:39;64.40;;;34.93;;
8279;SDS011;8335;42.646;23.380;2022-11-15T10:35:21;65.87;;;34.13;;
8279;SDS011;8335;42.646;23.380;2022-11-15T10:37:50;63.07;;;35.10;;
8279;SDS011;8335;42.646;23.380;2022-11-15T10:40:18;70.43;;;34.73;;
8279;SDS011;8335;42.646;23.380;2022-11-15T10:42:46;67.70;;;33.30;;
8279;SDS011;8335;42.646;23.380;2022-11-15T10:45:26;63.77;;;33.63;;
8279;SDS011;8335;42.646;23.380;2022-11-15T10:48:02;65.33;;;34.53;;
8279;SDS011;8335;42.646;23.380;2022-11-15T10:50:51;67.77;;;34.60;;
8279;SDS011;8335;42.646;23.380;2022-11-15T10:53:24;65.93;;;35.40;;
8279;SDS011;8335;42.646;23.380;2022-11-15T10:55:56;62.17;;;33.87;;
8279;SDS011;8335;42.646;23.380;2022-11-15T10:58:32;64.53;;;34.63;;
8279;SDS011;8335;42.646;23.380;2022-11-15T11:01:09;64.90;;;34.10;;
8279;SDS011;8335;42.646;23.380;2022-11-15T11:03:39;62.23;;;33.33;;
8279;SDS011;8335;42.646;23.380;2022-11-15T11:06:08;65.93;;;34.20;;
8279;SDS011;8335;42.646;23.380;2022-11-15T11:08:37;66.23;;;34.50;;
8279;SDS011;8335;42.646;23.380;2022-11-15T11:11:05;63.23;;;33.00;;
8279;SDS011;8335;42.646;23.380;2022-11-15T11:13:33;72.80;;;36.90;;
8279;SDS011;8335;42.646;23.380;2022-11-15T11:16:14;64.73;;;34.57;;
8279;SDS011;8335;42.646;23.380;2022-11-15T11:19:02;63.20;;;32.60;;
8279;SDS011;8335;42.646;23.380;2022-11-15T11:21:38;69.77;;;36.03;;
8279;SDS011;8335;42.646;23.380;2022-11-15T11:24:13;72.23;;;36.43;;
8279;SDS011;8335;42.646;23.380;2022-11-15T11:26:46;68.90;;;35.37;;
8279;SDS011;8335;42.646;23.380;2022-11-15T11:29:28;69.20;;;35.23;;
8279;SDS011;8335;42.646;23.380;2022-11-15T11:32:09;66.23;;;37.00;;
8279;SDS011;8335;42.646;23.380;2022-11-15T11:34:50;63.70;;;34.73;;
8279;SDS011;8335;42.646;23.380;2022-11-15T11:37:28;70.13;;;37.47;;
8279;SDS011;8335;42.646;23.380;2022-11-15T11:40:05;73.97;;;35.43;;
8279;SDS011;8335;42.646;23.380;2022-11-15T11:42:43;70.03;;;37.03;;
8279;SDS011;8335;42.646;23.380;2022-11-15T11:45:25;69.53;;;36.13;;
8279;SDS011;8335;42.646;23.380;2022-11-15T11:48:10;63.60;;;34.17;;
8279;SDS011;8335;42.646;23.380;2022-11-15T11:50:39;64.93;;;34.50;;
8279;SDS011;8335;42.646;23.380;2022-11-15T11:53:11;75.27;;;35.97;;
8279;SDS011;8335;42.646;23.380;2022-11-15T11:55:41;64.87;;;33.17;;
8279;SDS011;8335;42.646;23.380;2022-11-15T11:58:12;64.10;;;33.97;;
8279;SDS011;8335;42.646;23.380;2022-11-15T12:00:45;70.20;;;35.47;;
8279;SDS011;8335;42.646;23.380;2022-11-15T12:03:21;71.53;;;37.00;;
8279;SDS011;8335;42.646;23.380;2022-11-15T12:05:54;67.90;;;35.67;;
8279;SDS011;8335;42.646;23.380;2022-11-15T12:08:26;70.23;;;35.73;;
8279;SDS011;8335;42.646;23.380;2022-11-15T12:11:00;74.30;;;35.90;;
8279;SDS011;8335;42.646;23.380;2022-11-15T12:13:33;73.03;;;36.53;;
8279;SDS011;8335;42.646;23.380;2022-11-15T12:16:03;71.03;;;36.67;;
8279;SDS011;8335;42.646;23.380;2022-11-15T12:18:35;70.47;;;37.73;;
8279;SDS011;8335;42.646;23.380;2022-11-15T12:21:02;76.23;;;37.77;;
8279;SDS011;8335;42.646;23.380;2022-11-15T12:23:40;74.23;;;37.87;;
8279;SDS011;8335;42.646;23.380;2022-11-15T12:26:14;71.50;;;35.60;;
8279;SDS011;8335;42.646;23.380;2022-11-15T12:28:46;66.77;;;35.57;;
8279;SDS011;8335;42.646;23.380;2022-11-15T12:31:18;74.90;;;36.80;;
8279;SDS011;8335;42.646;23.380;2022-11-15T12:34:03;64.03;;;35.57;;
8279;SDS011;8335;42.646;23.380;2022-11-15T12:36:39;68.00;;;35.73;;
8279;SDS011;8335;42.646;23.380;2022-11-15T12:39:09;74.73;;;37.93;;
8279;SDS011;8335;42.646;23.380;2022-11-15T12:41:37;70.87;;;37.97;;
8279;SDS011;8335;42.646;23.380;2022-11-15T12:44:09;71.53;;;35.57;;
8279;SDS011;8335;42.646;23.380;2022-11-15T12:49:43;69.33;;;36.17;;
8279;SDS011;8335;42.646;23.380;2022-11-15T12:52:11;73.37;;;38.00;;
8279;SDS011;8335;42.646;23.380;2022-11-15T13:01:07;71.10;;;36.30;;
8279;SDS011;8335;42.646;23.380;2022-11-15T13:03:34;73.67;;;37.27;;
8279;SDS011;8335;42.646;23.380;2022-11-15T13:06:06;71.00;;;37.00;;
8279;SDS011;8335;42.646;23.380;2022-11-15T13:08:38;67.87;;;36.30;;
8279;SDS011;8335;42.646;23.380;2022-11-15T13:17:24;72.07;;;38.33;;
8279;SDS011;8335;42.646;23.380;2022-11-15T13:19:53;64.60;;;36.37;;
8279;SDS011;8335;42.646;23.380;2022-11-15T13:22:27;72.97;;;38.10;;
8279;SDS011;8335;42.646;23.380;2022-11-15T13:25:15;70.47;;;35.67;;
8279;SDS011;8335;42.646;23.380;2022-11-15T13:27:45;64.33;;;36.17;;
8279;SDS011;8335;42.646;23.380;2022-11-15T13:30:14;74.83;;;39.03;;
8279;SDS011;8335;42.646;23.380;2022-11-15T13:32:47;73.37;;;36.67;;
8279;SDS011;8335;42.646;23.380;2022-11-15T13:35:18;68.20;;;37.77;;
8279;SDS011;8335;42.646;23.380;2022-11-15T13:37:48;66.30;;;35.93;;
8279;SDS011;8335;42.646;23.380;2022-11-15T13:40:18;73.40;;;38.07;;
8279;SDS011;8335;42.646;23.380;2022-11-15T13:42:48;78.97;;;37.40;;
8279;SDS011;8335;42.646;23.380;2022-11-15T13:45:15;73.60;;;38.37;;
8279;SDS011;8335;42.646;23.380;2022-11-15T13:47:44;72.23;;;37.90;;
8279;SDS011;8335;42.646;23.380;2022-11-15T13:50:10;69.17;;;39.23;;
8279;SDS011;8335;42.646;23.380;2022-11-15T13:52:38;76.77;;;40.00;;
8279;SDS011;8335;42.646;23.380;2022-11-15T13:55:11;68.90;;;37.30;;
8279;SDS011;8335;42.646;23.380;2022-11-15T13:57:41;69.37;;;35.87;;
8279;SDS011;8335;42.646;23.380;2022-11-15T14:00:24;72.00;;;37.27;;
8279;SDS011;8335;42.646;23.380;2022-11-15T14:02:55;80.30;;;38.70;;
8279;SDS011;8335;42.646;23.380;2022-11-15T14:05:29;71.20;;;37.73;;
8279;SDS011;8335;42.646;23.380;2022-11-15T14:07:57;70.40;;;38.67;;
8279;SDS011;8335;42.646;23.380;2022-11-15T14:10:27;69.23;;;40.03;;
8279;SDS011;8335;42.646;23.380;2022-11-15T14:12:55;73.87;;;39.53;;
8279;SDS011;8335;42.646;23.380;2022-11-15T14:15:27;76.17;;;40.17;;
8279;SDS011;8335;42.646;23.380;2022-11-15T14:17:56;75.00;;;39.03;;
8279;SDS011;8335;42.646;23.380;2022-11-15T14:20:27;78.80;;;39.57;;
8279;SDS011;8335;42.646;23.380;2022-11-15T14:22:58;71.83;;;40.67;;
8279;SDS011;8335;42.646;23.380;2022-11-15T14:25:28;76.93;;;40.40;;
8279;SDS011;8335;42.646;23.380;2022-11-15T14:28:09;80.17;;;40.73;;
8279;SDS011;8335;42.646;23.380;2022-11-15T14:30:41;80.00;;;39.13;;
8279;SDS011;8335;42.646;23.380;2022-11-15T14:33:17;77.10;;;40.30;;
8279;SDS011;8335;42.646;23.380;2022-11-15T14:35:46;80.40;;;39.73;;
8279;SDS011;8335;42.646;23.380;2022-11-15T14:38:12;74.73;;;39.37;;
8279;SDS011;8335;42.646;23.380;2022-11-15T14:40:41;76.80;;;37.83;;
8279;SDS011;8335;42.646;23.380;2022-11-15T14:43:08;85.17;;;37.10;;
8279;SDS011;8335;42.646;23.380;2022-11-15T14:45:36;70.53;;;38.73;;
8279;SDS011;8335;42.646;23.380;2022-11-15T14:48:03;76.43;;;39.00;;
8279;SDS011;8335;42.646;23.380;2022-11-15T14:50:31;83.60;;;39.17;;
8279;SDS011;8335;42.646;23.380;2022-11-15T14:52:59;73.27;;;37.83;;
8279;SDS011;8335;42.646;23.380;2022-11-15T14:55:26;84.47;;;40.27;;
8279;SDS011;8335;42.646;23.380;2022-11-15T14:57:58;74.07;;;39.87;;
8279;SDS011;8335;42.646;23.380;2022-11-15T15:00:27;82.27;;;41.67;;
8279;SDS011;8335;42.646;23.380;2022-11-15T15:02:54;84.13;;;41.87;;
8279;SDS011;8335;42.646;23.380;2022-11-15T15:05:21;87.03;;;43.83;;
8279;SDS011;8335;42.646;23.380;2022-11-15T15:07:50;96.83;;;44.97;;
8279;SDS011;8335;42.646;23.380;2022-11-15T15:10:18;98.23;;;47.47;;